createdAt,value
2023-03-29T00:00:40.726Z,1.65
2023-03-29T00:01:50.363Z,1.50
2023-03-29T00:04:17.755Z,1.57
2023-03-29T00:05:27.004Z,1.56
2023-03-29T00:07:53.391Z,1.68
2023-03-29T00:10:25.916Z,1.70
2023-03-29T00:11:35.264Z,1.64
2023-03-29T00:13:59.951Z,1.61
2023-03-29T00:16:26.425Z,1.53
2023-03-29T00:17:36.242Z,1.53
2023-03-29T00:18:46.252Z,1.49
2023-03-29T00:19:55.694Z,1.50
2023-03-29T00:22:22.857Z,1.68
2023-03-29T00:23:32.237Z,1.62
2023-03-29T00:24:41.505Z,1.45
2023-03-29T00:27:06.656Z,1.66
2023-03-29T00:29:33.927Z,1.82
2023-03-29T00:31:58.637Z,1.72
2023-03-29T00:33:09.615Z,1.63
2023-03-29T00:35:35.602Z,1.76
2023-03-29T00:38:00.002Z,1.70
2023-03-29T00:39:09.634Z,1.59
2023-03-29T00:41:35.481Z,1.76
2023-03-29T00:44:04.209Z,1.66
2023-03-29T00:46:36.229Z,1.76
2023-03-29T00:49:15.583Z,1.65
2023-03-29T00:50:31.597Z,1.54
2023-03-29T00:53:08.985Z,1.64
2023-03-29T00:55:38.981Z,1.64
2023-03-29T00:56:51.792Z,1.49
2023-03-29T00:58:04.152Z,1.53
2023-03-29T01:00:52.810Z,1.64
2023-03-29T01:03:26.853Z,1.69
2023-03-29T01:04:46.456Z,1.61
2023-03-29T01:07:23.232Z,1.65
2023-03-29T01:11:25.301Z,1.70
2023-03-29T01:14:00.945Z,1.63
2023-03-29T01:15:15.392Z,1.43
2023-03-29T01:17:45.735Z,1.41
2023-03-29T01:20:42.046Z,1.61
2023-03-29T01:24:58.376Z,1.70
2023-03-29T01:26:23.312Z,1.63
2023-03-29T01:29:04.075Z,1.74
2023-03-29T01:31:37.508Z,1.74
2023-03-29T01:34:15.118Z,1.63
2023-03-29T01:35:34.156Z,1.55
2023-03-29T01:37:03.961Z,1.61
2023-03-29T01:39:38.128Z,1.72
2023-03-29T01:42:13.619Z,1.59
2023-03-29T01:45:17.020Z,1.66
2023-03-29T01:48:17.138Z,1.75
2023-03-29T01:49:27.804Z,1.42
2023-03-29T01:50:54.591Z,1.32
2023-03-29T01:55:08.490Z,1.56
2023-03-29T01:56:26.375Z,1.49
2023-03-29T01:58:57.758Z,1.72
2023-03-29T02:01:31.987Z,1.61
2023-03-29T02:04:04.151Z,1.66
2023-03-29T02:05:17.043Z,1.60
2023-03-29T02:07:46.996Z,1.67
2023-03-29T02:08:57.806Z,1.45
2023-03-29T02:11:26.878Z,1.75
2023-03-29T02:14:10.643Z,1.72
2023-03-29T02:16:38.478Z,1.58
2023-03-29T02:19:07.838Z,1.73
2023-03-29T02:21:51.222Z,1.65
2023-03-29T02:23:18.625Z,1.63
2023-03-29T02:25:54.043Z,1.81
2023-03-29T02:28:22.697Z,1.74
2023-03-29T02:29:33.851Z,1.55
2023-03-29T02:31:04.873Z,1.58
2023-03-29T02:35:19.788Z,1.52
2023-03-29T02:38:00.236Z,1.65
2023-03-29T02:39:14.590Z,1.55
2023-03-29T02:42:03.634Z,1.58
2023-03-29T02:44:36.000Z,1.51
2023-03-29T02:47:08.478Z,1.73
2023-03-29T02:49:36.360Z,1.78
2023-03-29T02:52:17.127Z,1.68
2023-03-29T02:54:55.777Z,1.61
2023-03-29T02:57:42.978Z,1.66
2023-03-29T03:00:09.677Z,1.62
2023-03-29T03:02:37.081Z,1.67
2023-03-29T03:03:50.969Z,1.61
2023-03-29T03:06:14.950Z,1.79
2023-03-29T03:07:24.866Z,1.59
2023-03-29T03:09:52.585Z,1.64
2023-03-29T03:11:03.059Z,1.57
2023-03-29T03:12:13.251Z,1.59
2023-03-29T03:14:37.463Z,1.50
2023-03-29T03:15:48.929Z,1.51
2023-03-29T03:16:58.958Z,1.49
2023-03-29T03:19:25.489Z,1.61
2023-03-29T03:21:51.949Z,1.64
2023-03-29T03:24:18.944Z,1.72
2023-03-29T03:26:45.503Z,1.68
2023-03-29T03:27:55.098Z,1.63
2023-03-29T03:29:05.321Z,1.35
2023-03-29T03:31:53.797Z,1.56
2023-03-29T03:34:36.953Z,1.49
2023-03-29T03:37:05.442Z,1.46
2023-03-29T03:39:33.288Z,1.66
2023-03-29T03:41:59.206Z,1.55
2023-03-29T03:44:25.641Z,1.60
2023-03-29T03:46:56.892Z,1.61
2023-03-29T03:49:22.305Z,1.51
2023-03-29T03:50:32.579Z,1.27
2023-03-29T03:51:44.234Z,1.39
2023-03-29T03:52:53.219Z,1.46
2023-03-29T03:54:04.064Z,1.47
2023-03-29T03:56:31.554Z,1.62
2023-03-29T03:57:48.019Z,1.55
2023-03-29T04:00:20.618Z,1.52
2023-03-29T04:03:05.372Z,1.65
2023-03-29T04:04:16.813Z,1.45
2023-03-29T04:07:03.461Z,1.58
2023-03-29T04:09:31.759Z,1.63
2023-03-29T04:11:31.662Z,1.58
2023-03-29T04:12:41.250Z,1.64
2023-03-29T04:13:50.611Z,1.60
2023-03-29T04:16:58.184Z,1.64
2023-03-29T04:20:14.839Z,1.80
2023-03-29T04:22:59.094Z,1.86
2023-03-29T04:24:09.309Z,1.63
2023-03-29T04:25:21.858Z,1.72
2023-03-29T04:27:50.823Z,1.83
2023-03-29T04:30:58.575Z,1.65
2023-03-29T04:32:56.723Z,1.58
2023-03-29T04:35:23.926Z,1.69
2023-03-29T04:36:32.714Z,1.63
2023-03-29T04:39:00.186Z,1.70
2023-03-29T04:41:30.615Z,1.70
2023-03-29T04:42:46.310Z,1.51
2023-03-29T04:43:56.138Z,1.51
2023-03-29T04:45:10.408Z,1.57
2023-03-29T04:47:42.969Z,1.77
2023-03-29T04:48:53.718Z,1.59
2023-03-29T04:50:07.474Z,1.39
2023-03-29T04:51:22.259Z,1.45
2023-03-29T04:53:57.534Z,1.62
2023-03-29T04:56:27.109Z,1.68
2023-03-29T04:59:26.782Z,1.63
2023-03-29T05:00:42.377Z,1.46
2023-03-29T05:03:12.181Z,1.75
2023-03-29T05:04:22.841Z,1.48
2023-03-29T05:06:49.610Z,1.72
2023-03-29T05:09:13.330Z,1.77
2023-03-29T05:11:42.578Z,1.72
2023-03-29T05:14:09.428Z,1.80
2023-03-29T05:15:21.241Z,1.65
2023-03-29T05:17:46.735Z,1.74
2023-03-29T05:20:18.101Z,1.74
2023-03-29T05:22:43.160Z,1.76
2023-03-29T05:25:14.196Z,1.72
2023-03-29T05:27:42.442Z,1.75
2023-03-29T05:30:10.062Z,1.64
2023-03-29T05:33:03.151Z,1.63
2023-03-29T05:35:29.631Z,1.64
2023-03-29T05:37:56.258Z,1.64
2023-03-29T05:40:25.640Z,1.74
2023-03-29T05:42:53.226Z,1.73
2023-03-29T05:45:17.618Z,1.81
2023-03-29T05:46:27.377Z,1.75
2023-03-29T05:47:38.826Z,1.67
2023-03-29T05:48:47.461Z,1.61
2023-03-29T05:51:14.289Z,1.73
2023-03-29T05:52:24.449Z,1.60
2023-03-29T05:54:48.802Z,1.67
2023-03-29T05:57:13.562Z,1.68
2023-03-29T05:59:41.169Z,1.70
2023-03-29T06:02:06.572Z,1.39
2023-03-29T06:04:38.260Z,1.63
2023-03-29T06:06:10.256Z,1.46
2023-03-29T06:07:19.271Z,1.56
2023-03-29T06:09:47.310Z,1.76
2023-03-29T06:12:21.555Z,1.52
2023-03-29T06:13:38.353Z,1.17
2023-03-29T06:14:48.370Z,1.38
2023-03-29T06:17:40.595Z,1.58
2023-03-29T06:18:52.179Z,1.47
2023-03-29T06:20:02.019Z,1.44
2023-03-29T06:22:28.107Z,1.59
2023-03-29T06:23:37.257Z,1.54
2023-03-29T06:24:46.612Z,1.60
2023-03-29T06:25:59.586Z,1.53
2023-03-29T06:27:10.764Z,1.46
2023-03-29T06:28:21.532Z,1.45
2023-03-29T06:29:31.599Z,1.49
2023-03-29T06:30:43.274Z,1.49
2023-03-29T06:31:56.652Z,1.47
2023-03-29T06:33:14.744Z,1.51
2023-03-29T06:35:49.239Z,1.66
2023-03-29T06:37:01.343Z,1.59
2023-03-29T06:38:10.729Z,1.63
2023-03-29T06:41:25.390Z,1.74
2023-03-29T06:43:55.038Z,1.77
2023-03-29T06:47:32.340Z,1.73
2023-03-29T06:48:41.137Z,1.51
2023-03-29T06:51:06.940Z,1.72
2023-03-29T06:52:16.799Z,1.67
2023-03-29T06:53:28.162Z,1.70
2023-03-29T06:54:39.193Z,1.73
2023-03-29T06:57:05.984Z,1.81
2023-03-29T06:58:17.049Z,1.78
2023-03-29T07:00:41.732Z,1.83
2023-03-29T07:42:04.488Z,1.99
2023-03-29T07:43:14.311Z,1.90
2023-03-29T07:44:23.244Z,1.85
2023-03-29T07:45:36.315Z,1.87
2023-03-29T07:48:06.923Z,2.10
2023-03-29T07:50:46.648Z,2.24
2023-03-29T07:53:12.115Z,2.17
2023-03-29T07:55:36.187Z,2.31
2023-03-29T07:57:31.261Z,2.15
2023-03-29T07:59:56.118Z,2.19
2023-03-29T08:01:08.365Z,2.02
2023-03-29T08:04:23.041Z,2.13
2023-03-29T08:05:52.066Z,1.90
2023-03-29T08:08:17.859Z,2.10
2023-03-29T08:10:50.370Z,2.12
2023-03-29T08:12:19.250Z,2.04
2023-03-29T08:13:30.261Z,2.11
2023-03-29T08:16:13.180Z,2.15
2023-03-29T08:18:40.992Z,2.28
2023-03-29T08:21:07.002Z,2.27
2023-03-29T08:23:31.591Z,2.38
2023-03-29T08:24:50.902Z,2.18
2023-03-29T08:27:17.155Z,2.27
2023-03-29T08:29:41.580Z,2.33
2023-03-29T08:32:06.714Z,2.40
2023-03-29T08:33:27.558Z,2.31
2023-03-29T08:34:38.100Z,2.34
2023-03-29T08:36:07.976Z,2.34
2023-03-29T08:37:19.589Z,2.16
2023-03-29T08:39:45.796Z,2.40
2023-03-29T08:43:13.915Z,2.31
2023-03-29T08:46:37.339Z,2.35
2023-03-29T08:49:26.679Z,2.38
2023-03-29T08:52:04.114Z,2.39
2023-03-29T08:54:43.095Z,2.34
2023-03-29T08:55:55.828Z,2.16
2023-03-29T08:59:28.585Z,2.25
2023-03-29T09:02:04.040Z,2.24
2023-03-29T09:04:52.931Z,2.38
2023-03-29T09:07:56.658Z,2.54
2023-03-29T09:09:11.895Z,2.42
2023-03-29T09:10:28.624Z,2.43
2023-03-29T09:11:44.262Z,2.44
2023-03-29T09:16:30.684Z,2.59
2023-03-29T09:19:23.228Z,2.61
2023-03-29T09:22:21.950Z,2.51
2023-03-29T09:23:55.884Z,2.35
2023-03-29T09:26:53.156Z,2.47
2023-03-29T09:29:45.390Z,2.41
2023-03-29T09:33:50.647Z,2.42
2023-03-29T09:36:46.804Z,2.54
2023-03-29T09:39:14.534Z,2.59
2023-03-29T09:42:03.585Z,2.66
2023-03-29T09:44:54.330Z,2.72
2023-03-29T09:47:50.553Z,2.73
2023-03-29T09:50:30.740Z,2.67
2023-03-29T09:54:18.954Z,2.67
2023-03-29T09:55:50.329Z,2.52
2023-03-29T09:57:21.803Z,2.50
2023-03-29T09:58:31.109Z,2.53
2023-03-29T09:59:41.418Z,2.46
2023-03-29T10:02:13.453Z,2.62
2023-03-29T10:04:42.584Z,2.66
2023-03-29T10:05:56.537Z,2.57
2023-03-29T10:07:08.271Z,2.56
2023-03-29T10:09:47.574Z,2.62
2023-03-29T10:12:17.227Z,2.69
2023-03-29T10:14:54.026Z,2.68
2023-03-29T10:17:26.493Z,2.76
2023-03-29T10:18:43.179Z,2.69
2023-03-29T10:21:15.236Z,2.81
2023-03-29T10:22:27.163Z,2.59
2023-03-29T10:23:38.176Z,2.65
2023-03-29T10:24:52.968Z,2.49
2023-03-29T10:27:31.152Z,2.76
2023-03-29T10:29:58.300Z,2.75
2023-03-29T10:32:35.593Z,2.78
2023-03-29T10:35:14.304Z,2.73
2023-03-29T10:36:27.058Z,2.70
2023-03-29T10:39:06.267Z,2.80
2023-03-29T10:41:53.660Z,2.93
2023-03-29T10:44:36.440Z,2.88
2023-03-29T10:45:52.082Z,2.81
2023-03-29T10:48:28.871Z,2.81
2023-03-29T10:51:02.283Z,2.64
2023-03-29T10:53:33.585Z,2.61
2023-03-29T10:56:22.899Z,2.64
2023-03-29T10:59:24.995Z,2.60
2023-03-29T11:02:19.029Z,2.73
2023-03-29T11:03:50.533Z,2.66
2023-03-29T11:05:27.108Z,2.70
2023-03-29T11:08:20.177Z,2.81
2023-03-29T11:12:59.897Z,2.67
2023-03-29T11:16:16.670Z,2.65
2023-03-29T11:17:54.528Z,2.60
2023-03-29T11:20:36.386Z,2.76
2023-03-29T11:23:28.823Z,2.86
2023-03-29T11:24:53.239Z,2.69
2023-03-29T11:27:50.613Z,2.81
2023-03-29T11:30:50.997Z,2.78
2023-03-29T11:32:36.298Z,2.68
2023-03-29T11:37:00.932Z,2.75
2023-03-29T11:40:05.078Z,2.79
2023-03-29T11:41:18.202Z,2.69
2023-03-29T11:43:55.376Z,2.85
2023-03-29T11:45:08.218Z,2.73
2023-03-29T11:47:48.062Z,2.81
2023-03-29T11:50:42.111Z,2.87
2023-03-29T11:52:01.137Z,2.80
2023-03-29T11:53:14.324Z,2.87
2023-03-29T11:55:56.449Z,3.00
2023-03-29T11:58:32.120Z,2.90
2023-03-29T11:59:44.867Z,2.87
2023-03-29T12:02:20.643Z,2.94
2023-03-29T12:05:02.570Z,2.85
2023-03-29T12:06:41.876Z,2.70
2023-03-29T12:07:57.277Z,2.66
2023-03-29T12:09:19.082Z,2.62
2023-03-29T12:10:40.210Z,2.61
2023-03-29T12:11:51.571Z,2.65
2023-03-29T12:15:05.515Z,2.65
2023-03-29T12:16:33.487Z,2.66
2023-03-29T12:18:04.943Z,2.72
2023-03-29T12:21:05.248Z,2.88
2023-03-29T12:22:16.275Z,2.84
2023-03-29T12:23:29.456Z,2.89
2023-03-29T12:28:03.858Z,2.96
2023-03-29T12:30:41.881Z,2.90
2023-03-29T12:33:36.921Z,2.96
2023-03-29T12:37:01.854Z,2.92
2023-03-29T12:39:53.433Z,3.00
2023-03-29T12:42:57.218Z,3.02
2023-03-29T12:46:27.011Z,3.12
2023-03-29T12:49:01.936Z,3.01
2023-03-29T12:51:56.130Z,3.03
2023-03-29T12:53:27.240Z,2.93
2023-03-29T12:54:36.995Z,2.90
2023-03-29T12:56:11.148Z,2.92
2023-03-29T12:57:24.179Z,2.83
2023-03-29T12:58:42.419Z,2.84
2023-03-29T13:01:30.449Z,3.01
2023-03-29T13:02:41.670Z,2.94
2023-03-29T13:05:34.484Z,3.09
2023-03-29T13:08:30.435Z,3.08
2023-03-29T13:10:01.760Z,2.89
2023-03-29T13:12:54.564Z,3.05
2023-03-29T13:15:26.033Z,2.96
2023-03-29T13:18:00.712Z,3.06
2023-03-29T13:20:37.350Z,3.02
2023-03-29T13:23:31.768Z,3.05
2023-03-29T13:26:09.991Z,3.00
2023-03-29T13:27:42.851Z,3.00
2023-03-29T13:29:11.189Z,2.96
2023-03-29T13:32:23.644Z,3.13
2023-03-29T13:35:38.484Z,3.13
2023-03-29T13:38:24.965Z,3.17
2023-03-29T13:41:08.121Z,3.23
2023-03-29T13:42:21.284Z,3.17
2023-03-29T13:44:54.543Z,3.28
2023-03-29T13:47:30.077Z,3.30
2023-03-29T13:50:02.024Z,3.38
2023-03-29T13:52:40.311Z,3.41
2023-03-29T13:55:27.715Z,3.30
2023-03-29T13:58:08.619Z,3.31
2023-03-29T14:00:53.471Z,3.37
2023-03-29T14:03:25.362Z,3.32
2023-03-29T14:06:00.247Z,3.26
2023-03-29T14:07:13.796Z,3.16
2023-03-29T14:08:33.338Z,3.14
2023-03-29T14:11:03.931Z,3.23
2023-03-29T14:12:15.228Z,2.92
2023-03-29T14:13:26.004Z,2.99
2023-03-29T14:14:38.688Z,3.07
2023-03-29T14:15:56.943Z,3.14
2023-03-29T14:18:25.797Z,3.31
2023-03-29T14:20:55.629Z,3.32
2023-03-29T14:23:33.038Z,3.25
2023-03-29T14:26:18.507Z,3.31
2023-03-29T14:28:50.150Z,3.27
2023-03-29T14:29:59.624Z,3.14
2023-03-29T14:31:21.704Z,3.13
2023-03-29T14:32:32.644Z,3.17
2023-03-29T14:33:42.006Z,3.01
2023-03-29T14:36:11.635Z,3.11
2023-03-29T14:38:40.724Z,3.17
2023-03-29T14:41:06.903Z,3.22
2023-03-29T14:42:23.026Z,3.15
2023-03-29T14:43:35.850Z,3.18
2023-03-29T14:46:03.634Z,3.18
2023-03-29T14:48:37.542Z,3.26
2023-03-29T14:51:03.601Z,3.31
2023-03-29T14:52:15.268Z,3.21
2023-03-29T14:53:26.344Z,3.23
2023-03-29T14:55:56.050Z,3.25
2023-03-29T15:01:21.805Z,3.27
2023-03-29T15:04:08.550Z,3.34
2023-03-29T15:05:39.621Z,3.24
2023-03-29T15:08:31.735Z,3.25
2023-03-29T15:10:56.194Z,3.26
2023-03-29T15:12:05.377Z,3.17
2023-03-29T15:14:40.293Z,3.28
2023-03-29T15:17:42.629Z,3.31
2023-03-29T15:20:04.293Z,3.29
2023-03-29T15:22:32.880Z,3.22
2023-03-29T15:25:17.829Z,3.28
2023-03-29T15:27:51.961Z,3.36
2023-03-29T15:30:30.938Z,3.32
2023-03-29T15:31:42.584Z,3.17
2023-03-29T15:32:53.426Z,3.09
2023-03-29T15:34:09.291Z,3.14
2023-03-29T15:35:24.581Z,3.16
2023-03-29T15:37:52.909Z,3.27
2023-03-29T15:39:01.788Z,3.18
2023-03-29T15:41:32.540Z,3.25
2023-03-29T15:43:57.974Z,3.21
2023-03-29T15:46:25.006Z,3.19
2023-03-29T15:47:34.741Z,3.06
2023-03-29T15:48:43.446Z,3.02
2023-03-29T15:51:10.996Z,3.21
2023-03-29T15:53:38.082Z,3.25
2023-03-29T15:56:04.811Z,3.30
2023-03-29T15:58:33.526Z,3.32
2023-03-29T16:01:03.183Z,3.37
2023-03-29T16:03:30.924Z,3.30
2023-03-29T16:06:02.058Z,3.33
2023-03-29T16:07:17.273Z,3.21
2023-03-29T16:08:26.955Z,3.25
2023-03-29T16:09:37.592Z,3.28
2023-03-29T16:12:03.882Z,3.41
2023-03-29T16:14:30.996Z,3.43
2023-03-29T16:16:59.844Z,3.35
2023-03-29T16:18:10.898Z,2.95
2023-03-29T16:20:38.814Z,3.19
2023-03-29T16:21:49.601Z,3.12
2023-03-29T16:22:58.060Z,3.11
2023-03-29T16:24:13.197Z,3.07
2023-03-29T16:26:38.591Z,3.18
2023-03-29T16:29:03.189Z,3.16
2023-03-29T16:31:28.892Z,3.17
2023-03-29T16:32:38.814Z,3.05
2023-03-29T16:35:03.901Z,3.11
2023-03-29T16:37:29.158Z,3.11
2023-03-29T16:38:38.702Z,3.00
2023-03-29T16:41:04.191Z,2.95
2023-03-29T16:42:13.986Z,2.87
2023-03-29T16:43:22.825Z,2.90
2023-03-29T16:45:46.606Z,3.02
2023-03-29T16:48:17.799Z,2.97
2023-03-29T16:50:41.362Z,2.97
2023-03-29T16:51:51.201Z,2.86
2023-03-29T16:54:16.889Z,2.98
2023-03-29T16:56:41.065Z,2.95
2023-03-29T16:59:05.900Z,3.00
2023-03-29T17:01:36.933Z,2.95
2023-03-29T17:04:04.204Z,2.92
2023-03-29T17:06:28.521Z,2.86
2023-03-29T17:08:53.802Z,2.90
2023-03-29T17:10:06.969Z,2.74
2023-03-29T17:12:32.055Z,2.91
2023-03-29T17:14:57.256Z,2.93
2023-03-29T17:16:07.354Z,2.80
2023-03-29T17:18:33.085Z,2.85
2023-03-29T17:19:42.614Z,2.77
2023-03-29T17:20:54.945Z,2.72
2023-03-29T17:23:19.701Z,2.93
2023-03-29T17:24:28.969Z,2.67
2023-03-29T17:26:59.401Z,2.82
2023-03-29T17:28:08.201Z,2.72
2023-03-29T17:30:35.679Z,2.78
2023-03-29T17:31:48.045Z,2.72
2023-03-29T17:34:17.532Z,2.79
2023-03-29T17:36:41.308Z,2.82
2023-03-29T17:37:50.913Z,2.72
2023-03-29T17:40:17.449Z,2.88
2023-03-29T17:42:44.391Z,2.89
2023-03-29T17:45:11.824Z,2.90
2023-03-29T17:47:39.088Z,2.81
2023-03-29T17:50:08.222Z,2.92
2023-03-29T17:51:18.647Z,2.84
2023-03-29T17:53:43.220Z,2.96
2023-03-29T17:56:08.163Z,2.93
2023-03-29T17:57:17.223Z,2.81
2023-03-29T17:59:41.229Z,2.87
2023-03-29T18:02:05.640Z,2.95
2023-03-29T18:04:29.754Z,2.93
2023-03-29T18:05:38.486Z,2.84
2023-03-29T18:06:49.348Z,2.88
2023-03-29T18:07:59.148Z,2.85
2023-03-29T18:10:25.866Z,2.94
2023-03-29T18:12:53.813Z,2.93
2023-03-29T18:15:20.343Z,2.94
2023-03-29T18:17:45.409Z,2.79
2023-03-29T18:20:12.204Z,2.85
2023-03-29T18:21:22.673Z,2.78
2023-03-29T18:23:51.224Z,2.92
2023-03-29T18:26:16.420Z,2.90
2023-03-29T18:28:47.664Z,2.97
2023-03-29T18:29:59.169Z,2.84
2023-03-29T18:31:08.094Z,2.89
2023-03-29T18:33:36.667Z,2.99
2023-03-29T18:34:46.710Z,2.87
2023-03-29T18:37:14.069Z,2.95
2023-03-29T18:38:22.739Z,2.85
2023-03-29T18:40:50.087Z,2.89
2023-03-29T18:43:14.770Z,2.86
2023-03-29T18:46:00.567Z,2.72
2023-03-29T18:48:25.082Z,2.82
2023-03-29T18:50:50.838Z,2.81
2023-03-29T18:53:16.999Z,2.75
2023-03-29T18:54:25.992Z,2.67
2023-03-29T18:55:35.190Z,2.70
2023-03-29T18:58:05.433Z,2.83
2023-03-29T19:00:29.568Z,2.76
2023-03-29T19:02:54.319Z,2.68
2023-03-29T19:04:04.280Z,2.61
2023-03-29T19:05:13.381Z,2.52
2023-03-29T19:07:38.251Z,2.57
2023-03-29T19:10:04.299Z,2.51
2023-03-29T19:11:15.884Z,2.43
2023-03-29T19:12:24.822Z,2.47
2023-03-29T19:13:35.553Z,2.48
2023-03-29T19:14:44.407Z,2.55
2023-03-29T19:15:54.209Z,2.57
2023-03-29T19:17:03.412Z,2.54
2023-03-29T19:18:12.361Z,2.51
2023-03-29T19:19:23.729Z,2.54
2023-03-29T19:21:50.678Z,2.61
2023-03-29T19:24:15.153Z,2.65
2023-03-29T19:26:40.611Z,2.64
2023-03-29T19:27:50.193Z,2.53
2023-03-29T19:29:00.486Z,2.56
2023-03-29T19:31:27.966Z,2.52
2023-03-29T19:33:51.878Z,2.55
2023-03-29T19:36:16.971Z,2.56
2023-03-29T19:38:43.209Z,2.63
2023-03-29T19:41:10.662Z,2.69
2023-03-29T19:43:37.527Z,2.76
2023-03-29T19:46:10.213Z,2.77
2023-03-29T19:48:34.388Z,2.78
2023-03-29T19:49:45.705Z,2.59
2023-03-29T19:50:55.475Z,2.58
2023-03-29T19:53:20.647Z,2.77
2023-03-29T19:54:30.135Z,2.49
2023-03-29T19:55:39.920Z,2.44
2023-03-29T19:58:06.666Z,2.70
2023-03-29T20:00:32.822Z,2.71
2023-03-29T20:02:59.380Z,2.82
2023-03-29T20:04:08.941Z,2.62
2023-03-29T20:06:33.348Z,2.66
2023-03-29T20:08:59.169Z,2.57
2023-03-29T20:11:24.563Z,2.63
2023-03-29T20:12:33.304Z,2.51
2023-03-29T20:13:44.772Z,2.47
2023-03-29T20:14:53.950Z,2.49
2023-03-29T20:16:03.158Z,2.50
2023-03-29T20:18:27.805Z,2.65
2023-03-29T20:20:52.677Z,2.66
2023-03-29T20:22:02.226Z,2.60
2023-03-29T20:24:27.795Z,2.71
2023-03-29T20:26:52.566Z,2.68
2023-03-29T20:28:02.172Z,2.58
2023-03-29T20:30:26.611Z,2.54
2023-03-29T20:31:35.438Z,2.49
2023-03-29T20:34:00.678Z,2.60
2023-03-29T20:36:28.820Z,2.63
2023-03-29T20:38:56.680Z,2.67
2023-03-29T20:40:08.573Z,2.57
2023-03-29T20:41:19.221Z,2.58
2023-03-29T20:43:47.768Z,2.69
2023-03-29T20:46:24.514Z,2.72
2023-03-29T20:47:36.480Z,2.61
2023-03-29T20:48:55.494Z,2.62
2023-03-29T20:50:09.113Z,2.63
2023-03-29T20:52:36.014Z,2.65
2023-03-29T20:55:02.329Z,2.55
2023-03-29T20:56:12.822Z,2.39
2023-03-29T20:58:38.939Z,2.44
2023-03-29T21:01:12.851Z,2.38
2023-03-29T21:03:40.147Z,2.30
2023-03-29T21:06:09.074Z,2.30
2023-03-29T21:07:20.133Z,2.22
2023-03-29T21:08:30.643Z,2.25
2023-03-29T21:10:57.932Z,2.30
2023-03-29T21:13:22.714Z,2.28
2023-03-29T21:14:32.875Z,2.22
2023-03-29T21:17:00.068Z,2.21
2023-03-29T21:18:09.136Z,2.15
2023-03-29T21:19:18.720Z,2.15
2023-03-29T21:21:44.810Z,2.28
2023-03-29T21:22:53.398Z,2.20
2023-03-29T21:25:18.737Z,2.33
2023-03-29T21:26:28.406Z,2.25
2023-03-29T21:27:38.093Z,2.24
2023-03-29T21:28:48.544Z,2.25
2023-03-29T21:31:13.403Z,2.36
2023-03-29T21:32:22.092Z,2.27
2023-03-29T21:33:31.222Z,2.26
2023-03-29T21:36:16.144Z,2.35
2023-03-29T21:37:26.896Z,2.20
2023-03-29T21:38:37.316Z,2.24
2023-03-29T21:41:03.698Z,2.32
2023-03-29T21:43:29.104Z,2.28
2023-03-29T21:45:53.427Z,2.30
2023-03-29T21:47:02.205Z,2.15
2023-03-29T21:48:11.544Z,2.11
2023-03-29T21:50:36.805Z,2.11
2023-03-29T21:51:47.026Z,1.99
2023-03-29T21:52:55.739Z,2.00
2023-03-29T21:54:05.986Z,2.01
2023-03-29T21:56:30.342Z,2.01
2023-03-29T21:58:56.888Z,2.00
2023-03-29T22:00:10.537Z,1.93
2023-03-29T22:02:35.139Z,1.95
2023-03-29T22:05:07.642Z,1.94
2023-03-29T22:06:18.992Z,1.86
2023-03-29T22:07:28.174Z,1.85
2023-03-29T22:09:58.791Z,2.00
2023-03-29T22:12:29.733Z,1.90
2023-03-29T22:14:53.313Z,2.00
2023-03-29T22:17:19.189Z,2.05
2023-03-29T22:19:49.201Z,2.03
2023-03-29T22:22:14.386Z,1.98
2023-03-29T22:24:42.759Z,1.94
2023-03-29T22:27:07.750Z,1.94
2023-03-29T22:28:16.473Z,1.85
2023-03-29T22:30:40.880Z,1.82
2023-03-29T22:33:05.312Z,1.82
2023-03-29T22:34:13.999Z,1.74
2023-03-29T22:35:23.230Z,1.75
2023-03-29T22:36:33.705Z,1.74
2023-03-29T22:39:00.805Z,1.75
2023-03-29T22:41:27.929Z,1.80
2023-03-29T22:42:37.620Z,1.73
2023-03-29T22:43:48.270Z,1.74
2023-03-29T22:46:14.417Z,1.85
2023-03-29T22:47:35.718Z,1.75
2023-03-29T22:50:02.090Z,1.87
2023-03-29T22:51:10.952Z,1.77
2023-03-29T22:52:20.405Z,1.74
2023-03-29T22:53:29.111Z,1.78
2023-03-29T22:55:55.984Z,1.76
2023-03-29T22:58:21.958Z,1.80
2023-03-29T22:59:30.770Z,1.69
2023-03-29T23:00:40.329Z,1.69
2023-03-29T23:03:06.061Z,1.76
2023-03-29T23:05:30.852Z,1.74
2023-03-29T23:07:56.498Z,1.79
2023-03-29T23:10:22.273Z,1.74
2023-03-29T23:11:32.004Z,1.65
2023-03-29T23:12:43.445Z,1.58
2023-03-29T23:13:53.183Z,1.63
2023-03-29T23:16:21.648Z,1.67
2023-03-29T23:18:47.583Z,1.67
2023-03-29T23:19:56.505Z,1.55
2023-03-29T23:22:22.074Z,1.69
2023-03-29T23:23:32.291Z,1.60
2023-03-29T23:24:43.277Z,1.63
2023-03-29T23:25:53.768Z,1.63
2023-03-29T23:28:25.193Z,1.74
2023-03-29T23:31:00.413Z,1.76
2023-03-29T23:32:11.684Z,1.66
2023-03-29T23:33:21.939Z,1.64
2023-03-29T23:34:33.671Z,1.62
2023-03-29T23:35:43.586Z,1.68
2023-03-29T23:36:53.317Z,1.68
2023-03-29T23:39:17.720Z,1.77
2023-03-29T23:41:42.985Z,1.76
2023-03-29T23:44:11.400Z,1.80
2023-03-29T23:45:20.028Z,1.70
2023-03-29T23:46:29.705Z,1.69
2023-03-29T23:48:55.226Z,1.84
2023-03-29T23:51:23.015Z,1.87
2023-03-29T23:52:34.808Z,1.74
2023-03-29T23:53:43.856Z,1.72
2023-03-29T23:54:53.103Z,1.69
2023-03-29T23:56:05.258Z,1.66
2023-03-29T23:58:33.804Z,1.78
2023-03-29T23:59:43.664Z,1.72
